Nossa — CUIC7 — position and weather

sailwx.info

Track history (hours):
 
Tides and Currents Weather Stations Pressure Air Temp Water Temp Dewpoint Dewpoint Depression Visibility Wind Speed Wind Dir Waves Ship Positions

Nossa

Last reported at 2018-Feb-20 19:26 UTC. Time now 2018-May-20 21:54 UTC.
Position N 39°10' W 027°18'.
Warning: this ship's position is months out of date.

Length 26 m.

Type: Fishing. MMSI: 263427750.

Date/timePositionNaut miles runAvg speedWind from/ knotsBaromVisibWave heightAir tempDewpointWater temp
2018-Feb-20 19:26N 39°10' W 027°18'8 7.3
2018-Feb-20 18:19N 39°03' W 027°23'2 7.6
2018-Feb-20 18:00N 39°01' W 027°25'68 7.1
2018-Feb-20 08:21N 38°12' W 028°26'5 7.3
2018-Feb-20 07:38N 38°10' W 028°32'1 7.3
2018-Feb-20 07:30N 38°10' W 028°33'4 7.5
2018-Feb-20 06:59N 38°08' W 028°38'4 7.4
2018-Feb-20 06:23N 38°06' W 028°43'3 6.9
2018-Feb-20 06:00N 38°05' W 028°46'3 7.0
2018-Feb-20 05:30N 38°04' W 028°50'4 7.2
2018-Feb-20 04:58N 38°03' W 028°55'10 7.4
2018-Feb-20 03:39N 37°59' W 029°06'8 7.5
2018-Feb-20 02:35N 37°57' W 029°16'1 7.6
2018-Feb-20 02:30N 37°56' W 029°16'14 7.2
2018-Feb-20 00:32N 37°52' W 029°33'0 7.5
2018-Feb-20 00:30N 37°52' W 029°34'5 7.4
2018-Feb-19 23:49N 37°50' W 029°39'43 1.4
2018-Feb-18 17:30N 37°31' W 030°29'7 7.8
2018-Feb-18 16:38N 37°30' W 030°37'6 8.1
2018-Feb-18 15:52N 37°29' W 030°45'4 8.3
2018-Feb-18 15:23N 37°28' W 030°50'  
Track history (hours):
 
Tides and Currents Weather Stations Pressure Air Temp Water Temp Dewpoint Dewpoint Depression Visibility Wind Speed Wind Dir Waves Ship Positions

Nossa

Last reported at 2018-Feb-20 19:26 UTC. Time now 2018-May-20 21:54 UTC.
Position N 39°10' W 027°18'.
Warning: this ship's position is months out of date.

Length 26 m.

Type: Fishing. MMSI: 263427750.

Date/timePositionNaut miles runAvg speedWind from/ knotsBaromVisibWave heightAir tempDewpointWater temp
2018-Feb-20 19:26N 39°10' W 027°18'8 7.3
2018-Feb-20 18:19N 39°03' W 027°23'2 7.6
2018-Feb-20 18:00N 39°01' W 027°25'68 7.1
2018-Feb-20 08:21N 38°12' W 028°26'5 7.3
2018-Feb-20 07:38N 38°10' W 028°32'1 7.3
2018-Feb-20 07:30N 38°10' W 028°33'4 7.5
2018-Feb-20 06:59N 38°08' W 028°38'4 7.4
2018-Feb-20 06:23N 38°06' W 028°43'3 6.9
2018-Feb-20 06:00N 38°05' W 028°46'3 7.0
2018-Feb-20 05:30N 38°04' W 028°50'4 7.2
2018-Feb-20 04:58N 38°03' W 028°55'10 7.4
2018-Feb-20 03:39N 37°59' W 029°06'8 7.5
2018-Feb-20 02:35N 37°57' W 029°16'1 7.6
2018-Feb-20 02:30N 37°56' W 029°16'14 7.2
2018-Feb-20 00:32N 37°52' W 029°33'0 7.5
2018-Feb-20 00:30N 37°52' W 029°34'5 7.4
2018-Feb-19 23:49N 37°50' W 029°39'43 1.4
2018-Feb-18 17:30N 37°31' W 030°29'7 7.8
2018-Feb-18 16:38N 37°30' W 030°37'6 8.1
2018-Feb-18 15:52N 37°29' W 030°45'4 8.3
2018-Feb-18 15:23N 37°28' W 030°50'  

Dump ship's entire track history